sensor_id;sensor_type;location;lat;lon;timestamp;P1;durP1;ratioP1;P2;durP2;ratioP2
8704;SDS011;4389;41.932;25.904;2023-05-27T00:02:09;12.77;;;5.70;;
8704;SDS011;4389;41.932;25.904;2023-05-27T00:04:36;9.63;;;5.70;;
8704;SDS011;4389;41.932;25.904;2023-05-27T00:07:03;6.63;;;5.37;;
8704;SDS011;4389;41.932;25.904;2023-05-27T00:09:30;10.00;;;5.90;;
8704;SDS011;4389;41.932;25.904;2023-05-27T00:11:57;8.53;;;5.60;;
8704;SDS011;4389;41.932;25.904;2023-05-27T00:14:25;10.17;;;5.10;;
8704;SDS011;4389;41.932;25.904;2023-05-27T00:16:52;11.03;;;6.63;;
8704;SDS011;4389;41.932;25.904;2023-05-27T00:19:20;9.33;;;5.20;;
8704;SDS011;4389;41.932;25.904;2023-05-27T00:21:47;17.10;;;5.47;;
8704;SDS011;4389;41.932;25.904;2023-05-27T00:24:13;8.23;;;5.30;;
8704;SDS011;4389;41.932;25.904;2023-05-27T00:26:40;6.53;;;5.70;;
8704;SDS011;4389;41.932;25.904;2023-05-27T00:29:07;6.80;;;5.00;;
8704;SDS011;4389;41.932;25.904;2023-05-27T00:31:37;8.07;;;5.17;;
8704;SDS011;4389;41.932;25.904;2023-05-27T00:34:04;10.30;;;7.83;;
8704;SDS011;4389;41.932;25.904;2023-05-27T00:36:31;7.63;;;6.17;;
8704;SDS011;4389;41.932;25.904;2023-05-27T00:38:58;6.37;;;4.83;;
8704;SDS011;4389;41.932;25.904;2023-05-27T00:41:25;9.97;;;4.83;;
8704;SDS011;4389;41.932;25.904;2023-05-27T00:43:52;14.67;;;4.83;;
8704;SDS011;4389;41.932;25.904;2023-05-27T00:46:19;9.23;;;5.33;;
8704;SDS011;4389;41.932;25.904;2023-05-27T00:48:48;11.50;;;5.23;;
8704;SDS011;4389;41.932;25.904;2023-05-27T00:51:15;10.63;;;5.07;;
8704;SDS011;4389;41.932;25.904;2023-05-27T00:53:42;8.07;;;5.13;;
8704;SDS011;4389;41.932;25.904;2023-05-27T00:56:10;6.33;;;4.67;;
8704;SDS011;4389;41.932;25.904;2023-05-27T00:58:40;9.70;;;5.30;;
8704;SDS011;4389;41.932;25.904;2023-05-27T01:01:08;9.10;;;5.40;;
8704;SDS011;4389;41.932;25.904;2023-05-27T01:03:35;6.53;;;4.30;;
8704;SDS011;4389;41.932;25.904;2023-05-27T01:06:08;16.63;;;4.90;;
8704;SDS011;4389;41.932;25.904;2023-05-27T01:08:44;12.47;;;5.43;;
8704;SDS011;4389;41.932;25.904;2023-05-27T01:11:24;7.73;;;5.33;;
8704;SDS011;4389;41.932;25.904;2023-05-27T01:13:59;7.93;;;5.60;;
8704;SDS011;4389;41.932;25.904;2023-05-27T01:16:31;8.33;;;5.37;;
8704;SDS011;4389;41.932;25.904;2023-05-27T01:18:58;8.13;;;5.20;;
8704;SDS011;4389;41.932;25.904;2023-05-27T01:21:30;7.70;;;5.50;;
8704;SDS011;4389;41.932;25.904;2023-05-27T01:24:03;10.83;;;5.23;;
8704;SDS011;4389;41.932;25.904;2023-05-27T01:26:31;8.47;;;5.10;;
8704;SDS011;4389;41.932;25.904;2023-05-27T01:28:58;8.23;;;4.53;;
8704;SDS011;4389;41.932;25.904;2023-05-27T01:31:26;11.90;;;4.93;;
8704;SDS011;4389;41.932;25.904;2023-05-27T01:33:59;5.63;;;4.70;;
8704;SDS011;4389;41.932;25.904;2023-05-27T01:36:31;6.73;;;4.77;;
8704;SDS011;4389;41.932;25.904;2023-05-27T01:39:04;11.63;;;5.23;;
8704;SDS011;4389;41.932;25.904;2023-05-27T01:41:32;5.87;;;5.33;;
8704;SDS011;4389;41.932;25.904;2023-05-27T01:44:00;8.37;;;5.90;;
8704;SDS011;4389;41.932;25.904;2023-05-27T01:46:28;6.53;;;5.80;;
8704;SDS011;4389;41.932;25.904;2023-05-27T01:48:55;7.37;;;6.03;;
8704;SDS011;4389;41.932;25.904;2023-05-27T01:51:22;9.03;;;7.27;;
8704;SDS011;4389;41.932;25.904;2023-05-27T01:53:49;11.97;;;6.50;;
8704;SDS011;4389;41.932;25.904;2023-05-27T01:56:17;11.23;;;6.70;;
8704;SDS011;4389;41.932;25.904;2023-05-27T01:58:44;14.40;;;7.63;;
8704;SDS011;4389;41.932;25.904;2023-05-27T02:01:10;12.33;;;6.87;;
8704;SDS011;4389;41.932;25.904;2023-05-27T02:03:37;10.33;;;6.80;;
8704;SDS011;4389;41.932;25.904;2023-05-27T02:06:04;14.23;;;6.47;;
8704;SDS011;4389;41.932;25.904;2023-05-27T02:08:31;8.70;;;7.80;;
8704;SDS011;4389;41.932;25.904;2023-05-27T02:10:59;9.60;;;8.60;;
8704;SDS011;4389;41.932;25.904;2023-05-27T02:13:27;11.83;;;7.77;;
8704;SDS011;4389;41.932;25.904;2023-05-27T02:15:54;21.17;;;16.17;;
8704;SDS011;4389;41.932;25.904;2023-05-27T02:18:21;10.03;;;9.03;;
8704;SDS011;4389;41.932;25.904;2023-05-27T02:20:47;12.17;;;10.90;;
8704;SDS011;4389;41.932;25.904;2023-05-27T02:23:14;8.47;;;7.67;;
8704;SDS011;4389;41.932;25.904;2023-05-27T02:25:41;10.30;;;7.20;;
8704;SDS011;4389;41.932;25.904;2023-05-27T02:28:08;10.63;;;7.33;;
8704;SDS011;4389;41.932;25.904;2023-05-27T02:30:37;13.07;;;7.23;;
8704;SDS011;4389;41.932;25.904;2023-05-27T02:33:04;11.97;;;7.13;;
8704;SDS011;4389;41.932;25.904;2023-05-27T02:35:31;8.77;;;6.93;;
8704;SDS011;4389;41.932;25.904;2023-05-27T02:37:58;13.00;;;6.97;;
8704;SDS011;4389;41.932;25.904;2023-05-27T02:40:25;15.13;;;6.47;;
8704;SDS011;4389;41.932;25.904;2023-05-27T02:42:52;10.20;;;7.53;;
8704;SDS011;4389;41.932;25.904;2023-05-27T02:45:19;9.30;;;6.70;;
8704;SDS011;4389;41.932;25.904;2023-05-27T02:47:47;11.70;;;7.07;;
8704;SDS011;4389;41.932;25.904;2023-05-27T02:50:14;8.57;;;7.00;;
8704;SDS011;4389;41.932;25.904;2023-05-27T02:52:41;13.97;;;6.83;;
8704;SDS011;4389;41.932;25.904;2023-05-27T02:55:08;10.27;;;6.37;;
8704;SDS011;4389;41.932;25.904;2023-05-27T02:57:36;13.13;;;6.43;;
8704;SDS011;4389;41.932;25.904;2023-05-27T03:00:03;17.73;;;10.00;;
8704;SDS011;4389;41.932;25.904;2023-05-27T03:02:33;9.63;;;7.33;;
8704;SDS011;4389;41.932;25.904;2023-05-27T03:05:02;11.73;;;7.90;;
8704;SDS011;4389;41.932;25.904;2023-05-27T03:07:30;12.57;;;9.87;;
8704;SDS011;4389;41.932;25.904;2023-05-27T03:09:57;11.80;;;7.97;;
8704;SDS011;4389;41.932;25.904;2023-05-27T03:12:24;13.73;;;6.90;;
8704;SDS011;4389;41.932;25.904;2023-05-27T03:14:51;9.80;;;6.97;;
8704;SDS011;4389;41.932;25.904;2023-05-27T03:17:18;8.53;;;6.63;;
8704;SDS011;4389;41.932;25.904;2023-05-27T03:19:45;12.77;;;7.80;;
8704;SDS011;4389;41.932;25.904;2023-05-27T03:22:15;11.63;;;7.03;;
8704;SDS011;4389;41.932;25.904;2023-05-27T03:24:42;11.73;;;7.13;;
8704;SDS011;4389;41.932;25.904;2023-05-27T03:27:10;11.63;;;7.43;;
8704;SDS011;4389;41.932;25.904;2023-05-27T03:29:36;13.37;;;7.67;;
8704;SDS011;4389;41.932;25.904;2023-05-27T03:32:03;12.27;;;8.13;;
8704;SDS011;4389;41.932;25.904;2023-05-27T03:34:31;12.47;;;8.40;;
8704;SDS011;4389;41.932;25.904;2023-05-27T03:36:58;9.07;;;7.87;;
8704;SDS011;4389;41.932;25.904;2023-05-27T03:39:26;10.47;;;7.70;;
8704;SDS011;4389;41.932;25.904;2023-05-27T03:41:52;14.50;;;8.07;;
8704;SDS011;4389;41.932;25.904;2023-05-27T03:44:19;13.87;;;8.87;;
8704;SDS011;4389;41.932;25.904;2023-05-27T03:46:46;12.23;;;8.07;;
8704;SDS011;4389;41.932;25.904;2023-05-27T03:49:13;11.60;;;8.23;;
8704;SDS011;4389;41.932;25.904;2023-05-27T03:51:40;11.33;;;8.20;;
8704;SDS011;4389;41.932;25.904;2023-05-27T03:54:07;10.37;;;8.10;;
8704;SDS011;4389;41.932;25.904;2023-05-27T03:56:35;8.97;;;7.80;;
8704;SDS011;4389;41.932;25.904;2023-05-27T03:59:02;10.80;;;7.43;;
8704;SDS011;4389;41.932;25.904;2023-05-27T04:01:28;13.27;;;7.50;;
8704;SDS011;4389;41.932;25.904;2023-05-27T04:03:55;11.10;;;7.60;;
8704;SDS011;4389;41.932;25.904;2023-05-27T04:06:22;8.00;;;6.83;;
8704;SDS011;4389;41.932;25.904;2023-05-27T04:08:49;10.50;;;6.60;;
8704;SDS011;4389;41.932;25.904;2023-05-27T04:11:16;10.20;;;7.47;;
8704;SDS011;4389;41.932;25.904;2023-05-27T04:13:44;9.73;;;6.33;;
8704;SDS011;4389;41.932;25.904;2023-05-27T04:16:12;19.10;;;8.50;;
8704;SDS011;4389;41.932;25.904;2023-05-27T04:18:38;20.37;;;8.80;;
8704;SDS011;4389;41.932;25.904;2023-05-27T04:21:05;17.97;;;7.40;;
8704;SDS011;4389;41.932;25.904;2023-05-27T04:23:33;10.23;;;6.40;;
8704;SDS011;4389;41.932;25.904;2023-05-27T04:26:01;14.73;;;7.77;;
8704;SDS011;4389;41.932;25.904;2023-05-27T04:28:28;10.43;;;6.30;;
8704;SDS011;4389;41.932;25.904;2023-05-27T04:30:56;8.93;;;7.20;;
8704;SDS011;4389;41.932;25.904;2023-05-27T04:33:22;8.13;;;7.27;;
8704;SDS011;4389;41.932;25.904;2023-05-27T04:35:50;8.20;;;7.40;;
8704;SDS011;4389;41.932;25.904;2023-05-27T04:38:18;8.27;;;7.30;;
8704;SDS011;4389;41.932;25.904;2023-05-27T04:40:46;10.60;;;7.13;;
8704;SDS011;4389;41.932;25.904;2023-05-27T04:43:18;8.77;;;6.40;;
8704;SDS011;4389;41.932;25.904;2023-05-27T04:45:45;9.23;;;7.47;;
8704;SDS011;4389;41.932;25.904;2023-05-27T04:48:13;8.00;;;7.23;;
8704;SDS011;4389;41.932;25.904;2023-05-27T04:50:40;10.23;;;7.33;;
8704;SDS011;4389;41.932;25.904;2023-05-27T04:53:07;14.17;;;7.13;;
8704;SDS011;4389;41.932;25.904;2023-05-27T04:55:34;9.03;;;6.87;;
8704;SDS011;4389;41.932;25.904;2023-05-27T04:58:01;9.47;;;6.97;;
8704;SDS011;4389;41.932;25.904;2023-05-27T05:00:28;8.57;;;7.43;;
8704;SDS011;4389;41.932;25.904;2023-05-27T05:03:04;10.07;;;7.33;;
8704;SDS011;4389;41.932;25.904;2023-05-27T05:05:33;9.63;;;7.03;;
8704;SDS011;4389;41.932;25.904;2023-05-27T05:08:00;10.20;;;7.13;;
8704;SDS011;4389;41.932;25.904;2023-05-27T05:10:28;8.03;;;6.43;;
8704;SDS011;4389;41.932;25.904;2023-05-27T05:12:55;14.53;;;7.63;;
8704;SDS011;4389;41.932;25.904;2023-05-27T05:15:22;11.20;;;6.63;;
8704;SDS011;4389;41.932;25.904;2023-05-27T05:17:49;9.70;;;6.13;;
8704;SDS011;4389;41.932;25.904;2023-05-27T05:20:16;10.57;;;6.17;;
8704;SDS011;4389;41.932;25.904;2023-05-27T05:22:45;9.57;;;6.23;;
8704;SDS011;4389;41.932;25.904;2023-05-27T05:25:12;8.60;;;5.60;;
8704;SDS011;4389;41.932;25.904;2023-05-27T05:27:40;10.77;;;6.20;;
8704;SDS011;4389;41.932;25.904;2023-05-27T05:30:07;11.93;;;5.83;;
8704;SDS011;4389;41.932;25.904;2023-05-27T05:32:35;10.57;;;6.23;;
8704;SDS011;4389;41.932;25.904;2023-05-27T05:35:01;10.57;;;5.47;;
8704;SDS011;4389;41.932;25.904;2023-05-27T05:37:28;13.17;;;5.60;;
8704;SDS011;4389;41.932;25.904;2023-05-27T05:39:56;11.93;;;5.83;;
8704;SDS011;4389;41.932;25.904;2023-05-27T05:42:23;10.63;;;6.30;;
8704;SDS011;4389;41.932;25.904;2023-05-27T05:44:50;9.07;;;6.13;;
8704;SDS011;4389;41.932;25.904;2023-05-27T05:47:18;6.63;;;5.93;;
8704;SDS011;4389;41.932;25.904;2023-05-27T05:49:45;8.10;;;5.90;;
8704;SDS011;4389;41.932;25.904;2023-05-27T05:52:11;6.80;;;5.50;;
8704;SDS011;4389;41.932;25.904;2023-05-27T05:54:38;7.80;;;5.83;;
8704;SDS011;4389;41.932;25.904;2023-05-27T05:57:06;13.73;;;5.40;;
8704;SDS011;4389;41.932;25.904;2023-05-27T05:59:33;7.27;;;5.53;;
8704;SDS011;4389;41.932;25.904;2023-05-27T06:02:00;8.47;;;5.50;;
8704;SDS011;4389;41.932;25.904;2023-05-27T06:04:27;5.90;;;4.83;;
8704;SDS011;4389;41.932;25.904;2023-05-27T06:06:54;7.33;;;5.37;;
8704;SDS011;4389;41.932;25.904;2023-05-27T06:09:21;11.63;;;5.40;;
8704;SDS011;4389;41.932;25.904;2023-05-27T06:11:48;7.40;;;4.63;;
8704;SDS011;4389;41.932;25.904;2023-05-27T06:14:16;6.23;;;5.17;;
8704;SDS011;4389;41.932;25.904;2023-05-27T06:16:43;16.50;;;6.07;;
8704;SDS011;4389;41.932;25.904;2023-05-27T06:19:10;8.33;;;5.20;;
8704;SDS011;4389;41.932;25.904;2023-05-27T06:21:37;7.50;;;5.37;;
8704;SDS011;4389;41.932;25.904;2023-05-27T06:24:05;8.30;;;5.77;;
8704;SDS011;4389;41.932;25.904;2023-05-27T06:26:32;11.17;;;5.77;;
8704;SDS011;4389;41.932;25.904;2023-05-27T06:28:59;16.57;;;5.37;;
8704;SDS011;4389;41.932;25.904;2023-05-27T06:31:27;11.97;;;5.77;;
8704;SDS011;4389;41.932;25.904;2023-05-27T06:33:54;8.80;;;6.20;;
8704;SDS011;4389;41.932;25.904;2023-05-27T06:36:21;7.27;;;5.20;;
8704;SDS011;4389;41.932;25.904;2023-05-27T06:38:47;12.77;;;5.73;;
8704;SDS011;4389;41.932;25.904;2023-05-27T06:41:14;8.60;;;5.70;;
8704;SDS011;4389;41.932;25.904;2023-05-27T06:43:41;7.70;;;5.70;;
8704;SDS011;4389;41.932;25.904;2023-05-27T06:46:08;11.90;;;5.20;;
8704;SDS011;4389;41.932;25.904;2023-05-27T06:48:36;13.00;;;6.20;;
8704;SDS011;4389;41.932;25.904;2023-05-27T06:51:03;7.87;;;5.37;;
8704;SDS011;4389;41.932;25.904;2023-05-27T06:53:31;6.30;;;5.53;;
8704;SDS011;4389;41.932;25.904;2023-05-27T06:55:58;8.37;;;6.00;;
8704;SDS011;4389;41.932;25.904;2023-05-27T06:58:25;11.87;;;5.90;;
8704;SDS011;4389;41.932;25.904;2023-05-27T07:00:52;6.47;;;4.63;;
8704;SDS011;4389;41.932;25.904;2023-05-27T07:03:18;5.87;;;5.27;;
8704;SDS011;4389;41.932;25.904;2023-05-27T07:05:46;5.10;;;4.60;;
8704;SDS011;4389;41.932;25.904;2023-05-27T07:08:13;8.10;;;4.80;;
8704;SDS011;4389;41.932;25.904;2023-05-27T07:10:40;9.53;;;5.70;;
8704;SDS011;4389;41.932;25.904;2023-05-27T07:13:07;6.77;;;4.70;;
8704;SDS011;4389;41.932;25.904;2023-05-27T07:15:34;11.53;;;5.27;;
8704;SDS011;4389;41.932;25.904;2023-05-27T07:18:01;6.97;;;5.03;;
8704;SDS011;4389;41.932;25.904;2023-05-27T07:20:27;18.83;;;5.73;;
8704;SDS011;4389;41.932;25.904;2023-05-27T07:22:56;10.07;;;5.10;;
8704;SDS011;4389;41.932;25.904;2023-05-27T07:25:22;5.87;;;4.10;;
8704;SDS011;4389;41.932;25.904;2023-05-27T07:27:50;5.57;;;4.57;;
8704;SDS011;4389;41.932;25.904;2023-05-27T07:30:17;16.70;;;4.80;;
8704;SDS011;4389;41.932;25.904;2023-05-27T07:32:44;5.80;;;4.40;;
8704;SDS011;4389;41.932;25.904;2023-05-27T07:35:11;7.50;;;4.70;;
8704;SDS011;4389;41.932;25.904;2023-05-27T07:37:38;6.70;;;4.50;;
8704;SDS011;4389;41.932;25.904;2023-05-27T07:40:07;10.17;;;5.10;;
8704;SDS011;4389;41.932;25.904;2023-05-27T07:42:34;7.47;;;4.80;;
8704;SDS011;4389;41.932;25.904;2023-05-27T07:45:01;6.77;;;5.33;;
8704;SDS011;4389;41.932;25.904;2023-05-27T07:47:28;11.33;;;6.00;;
8704;SDS011;4389;41.932;25.904;2023-05-27T07:49:55;11.70;;;4.63;;
8704;SDS011;4389;41.932;25.904;2023-05-27T07:52:22;8.90;;;4.90;;
8704;SDS011;4389;41.932;25.904;2023-05-27T07:54:48;6.20;;;4.60;;
8704;SDS011;4389;41.932;25.904;2023-05-27T07:57:17;4.37;;;4.00;;
8704;SDS011;4389;41.932;25.904;2023-05-27T07:59:44;9.07;;;4.43;;
8704;SDS011;4389;41.932;25.904;2023-05-27T08:02:10;11.10;;;5.43;;
8704;SDS011;4389;41.932;25.904;2023-05-27T08:04:37;9.13;;;4.50;;
8704;SDS011;4389;41.932;25.904;2023-05-27T08:07:04;11.87;;;4.93;;
8704;SDS011;4389;41.932;25.904;2023-05-27T08:09:31;5.73;;;4.20;;
8704;SDS011;4389;41.932;25.904;2023-05-27T08:11:58;8.87;;;4.00;;
8704;SDS011;4389;41.932;25.904;2023-05-27T08:14:27;4.77;;;3.80;;
8704;SDS011;4389;41.932;25.904;2023-05-27T08:16:54;13.73;;;4.70;;
8704;SDS011;4389;41.932;25.904;2023-05-27T08:19:21;6.93;;;3.90;;
8704;SDS011;4389;41.932;25.904;2023-05-27T08:21:48;7.57;;;3.90;;
8704;SDS011;4389;41.932;25.904;2023-05-27T08:24:15;8.67;;;3.80;;
8704;SDS011;4389;41.932;25.904;2023-05-27T08:26:42;4.23;;;3.83;;
8704;SDS011;4389;41.932;25.904;2023-05-27T08:29:09;6.83;;;4.27;;
8704;SDS011;4389;41.932;25.904;2023-05-27T08:31:37;4.93;;;4.17;;
8704;SDS011;4389;41.932;25.904;2023-05-27T08:34:04;9.90;;;5.17;;
8704;SDS011;4389;41.932;25.904;2023-05-27T08:36:31;10.23;;;5.00;;
8704;SDS011;4389;41.932;25.904;2023-05-27T08:38:58;16.10;;;4.90;;
8704;SDS011;4389;41.932;25.904;2023-05-27T08:41:25;11.07;;;5.20;;
8704;SDS011;4389;41.932;25.904;2023-05-27T08:43:53;7.97;;;4.93;;
8704;SDS011;4389;41.932;25.904;2023-05-27T08:46:20;10.63;;;4.80;;
8704;SDS011;4389;41.932;25.904;2023-05-27T08:48:48;19.37;;;6.67;;
8704;SDS011;4389;41.932;25.904;2023-05-27T08:51:16;8.10;;;4.93;;
8704;SDS011;4389;41.932;25.904;2023-05-27T08:53:43;10.83;;;5.30;;
8704;SDS011;4389;41.932;25.904;2023-05-27T08:56:11;8.43;;;5.50;;
8704;SDS011;4389;41.932;25.904;2023-05-27T08:58:40;7.30;;;4.93;;
8704;SDS011;4389;41.932;25.904;2023-05-27T09:01:09;11.37;;;5.37;;
8704;SDS011;4389;41.932;25.904;2023-05-27T09:03:36;13.03;;;5.40;;
8704;SDS011;4389;41.932;25.904;2023-05-27T09:06:04;8.40;;;5.00;;
8704;SDS011;4389;41.932;25.904;2023-05-27T09:08:31;7.83;;;4.17;;
8704;SDS011;4389;41.932;25.904;2023-05-27T09:10:58;6.13;;;4.47;;
8704;SDS011;4389;41.932;25.904;2023-05-27T09:13:25;5.10;;;3.90;;
8704;SDS011;4389;41.932;25.904;2023-05-27T09:15:57;9.50;;;4.33;;
8704;SDS011;4389;41.932;25.904;2023-05-27T09:18:25;6.23;;;4.23;;
8704;SDS011;4389;41.932;25.904;2023-05-27T09:20:53;7.63;;;3.90;;
8704;SDS011;4389;41.932;25.904;2023-05-27T09:23:23;5.13;;;4.50;;
8704;SDS011;4389;41.932;25.904;2023-05-27T09:25:50;8.50;;;4.07;;
8704;SDS011;4389;41.932;25.904;2023-05-27T09:28:20;7.70;;;4.23;;
8704;SDS011;4389;41.932;25.904;2023-05-27T09:30:50;5.80;;;4.40;;
8704;SDS011;4389;41.932;25.904;2023-05-27T09:33:22;8.30;;;4.53;;
8704;SDS011;4389;41.932;25.904;2023-05-27T09:35:50;6.20;;;4.17;;
8704;SDS011;4389;41.932;25.904;2023-05-27T09:38:16;5.70;;;4.07;;
8704;SDS011;4389;41.932;25.904;2023-05-27T09:40:45;6.00;;;4.20;;
8704;SDS011;4389;41.932;25.904;2023-05-27T09:43:13;3.70;;;3.40;;
8704;SDS011;4389;41.932;25.904;2023-05-27T09:45:41;5.27;;;3.83;;
8704;SDS011;4389;41.932;25.904;2023-05-27T09:48:08;7.20;;;4.50;;
8704;SDS011;4389;41.932;25.904;2023-05-27T09:50:38;9.47;;;3.37;;
8704;SDS011;4389;41.932;25.904;2023-05-27T09:53:06;5.50;;;2.93;;
8704;SDS011;4389;41.932;25.904;2023-05-27T09:55:33;3.13;;;2.50;;
8704;SDS011;4389;41.932;25.904;2023-05-27T09:58:01;3.73;;;2.77;;
8704;SDS011;4389;41.932;25.904;2023-05-27T10:00:28;4.87;;;3.00;;
8704;SDS011;4389;41.932;25.904;2023-05-27T10:02:57;7.80;;;3.00;;
8704;SDS011;4389;41.932;25.904;2023-05-27T10:05:26;5.40;;;2.73;;
8704;SDS011;4389;41.932;25.904;2023-05-27T10:07:55;8.50;;;2.90;;
8704;SDS011;4389;41.932;25.904;2023-05-27T10:10:22;5.70;;;2.90;;
8704;SDS011;4389;41.932;25.904;2023-05-27T10:12:49;5.33;;;3.37;;
8704;SDS011;4389;41.932;25.904;2023-05-27T10:15:24;3.30;;;3.00;;
8704;SDS011;4389;41.932;25.904;2023-05-27T10:17:54;3.43;;;2.93;;
8704;SDS011;4389;41.932;25.904;2023-05-27T10:20:29;4.73;;;3.10;;
8704;SDS011;4389;41.932;25.904;2023-05-27T10:22:57;4.67;;;3.20;;
8704;SDS011;4389;41.932;25.904;2023-05-27T10:25:37;3.27;;;2.80;;
8704;SDS011;4389;41.932;25.904;2023-05-27T10:28:04;6.93;;;3.30;;
8704;SDS011;4389;41.932;25.904;2023-05-27T10:30:43;9.20;;;2.63;;
8704;SDS011;4389;41.932;25.904;2023-05-27T10:33:10;3.27;;;2.80;;
8704;SDS011;4389;41.932;25.904;2023-05-27T10:35:40;13.90;;;3.20;;
8704;SDS011;4389;41.932;25.904;2023-05-27T10:38:17;6.90;;;3.43;;
8704;SDS011;4389;41.932;25.904;2023-05-27T10:40:45;3.80;;;2.80;;
8704;SDS011;4389;41.932;25.904;2023-05-27T10:43:16;3.23;;;2.90;;
8704;SDS011;4389;41.932;25.904;2023-05-27T10:45:45;3.63;;;3.00;;
8704;SDS011;4389;41.932;25.904;2023-05-27T10:48:16;7.33;;;3.13;;
8704;SDS011;4389;41.932;25.904;2023-05-27T10:50:50;4.00;;;2.80;;
8704;SDS011;4389;41.932;25.904;2023-05-27T10:53:18;7.18;;;3.25;;
8704;SDS011;4389;41.932;25.904;2023-05-27T10:55:47;4.07;;;2.90;;
8704;SDS011;4389;41.932;25.904;2023-05-27T10:58:15;7.40;;;3.37;;
8704;SDS011;4389;41.932;25.904;2023-05-27T11:00:43;3.92;;;2.88;;
8704;SDS011;4389;41.932;25.904;2023-05-27T11:03:19;4.30;;;3.08;;
8704;SDS011;4389;41.932;25.904;2023-05-27T11:05:48;4.63;;;3.10;;
8704;SDS011;4389;41.932;25.904;2023-05-27T11:08:23;3.53;;;3.22;;
8704;SDS011;4389;41.932;25.904;2023-05-27T11:10:50;5.25;;;2.95;;
8704;SDS011;4389;41.932;25.904;2023-05-27T11:13:17;3.70;;;3.40;;
8704;SDS011;4389;41.932;25.904;2023-05-27T11:15:44;4.65;;;3.50;;
8704;SDS011;4389;41.932;25.904;2023-05-27T11:18:11;6.45;;;3.20;;
8704;SDS011;4389;41.932;25.904;2023-05-27T11:20:39;6.57;;;3.50;;
8704;SDS011;4389;41.932;25.904;2023-05-27T11:23:06;4.70;;;3.70;;
8704;SDS011;4389;41.932;25.904;2023-05-27T11:25:42;13.75;;;3.88;;
8704;SDS011;4389;41.932;25.904;2023-05-27T11:28:15;5.23;;;3.13;;
8704;SDS011;4389;41.932;25.904;2023-05-27T11:30:42;6.77;;;3.80;;
8704;SDS011;4389;41.932;25.904;2023-05-27T11:33:09;3.63;;;3.33;;
8704;SDS011;4389;41.932;25.904;2023-05-27T11:35:36;3.47;;;3.17;;
8704;SDS011;4389;41.932;25.904;2023-05-27T11:38:04;4.73;;;3.50;;
8704;SDS011;4389;41.932;25.904;2023-05-27T11:40:41;9.83;;;3.87;;
8704;SDS011;4389;41.932;25.904;2023-05-27T11:43:08;6.27;;;3.60;;
8704;SDS011;4389;41.932;25.904;2023-05-27T11:45:36;4.33;;;3.53;;
8704;SDS011;4389;41.932;25.904;2023-05-27T11:48:03;6.20;;;3.80;;
8704;SDS011;4389;41.932;25.904;2023-05-27T11:50:30;7.87;;;4.00;;
8704;SDS011;4389;41.932;25.904;2023-05-27T11:52:57;8.90;;;4.32;;
8704;SDS011;4389;41.932;25.904;2023-05-27T11:55:30;7.05;;;3.28;;
8704;SDS011;4389;41.932;25.904;2023-05-27T11:57:57;8.88;;;3.40;;
8704;SDS011;4389;41.932;25.904;2023-05-27T12:00:24;5.72;;;3.47;;
8704;SDS011;4389;41.932;25.904;2023-05-27T12:02:51;4.25;;;3.40;;
8704;SDS011;4389;41.932;25.904;2023-05-27T12:05:18;4.35;;;3.30;;
8704;SDS011;4389;41.932;25.904;2023-05-27T12:07:44;4.10;;;3.50;;
8704;SDS011;4389;41.932;25.904;2023-05-27T12:10:12;7.88;;;3.40;;
8704;SDS011;4389;41.932;25.904;2023-05-27T12:12:40;9.07;;;3.80;;
8704;SDS011;4389;41.932;25.904;2023-05-27T12:15:09;6.30;;;3.53;;
8704;SDS011;4389;41.932;25.904;2023-05-27T12:17:36;7.53;;;3.90;;
8704;SDS011;4389;41.932;25.904;2023-05-27T12:20:04;5.63;;;3.72;;
8704;SDS011;4389;41.932;25.904;2023-05-27T12:22:31;5.43;;;3.90;;
8704;SDS011;4389;41.932;25.904;2023-05-27T12:24:58;5.25;;;3.45;;
8704;SDS011;4389;41.932;25.904;2023-05-27T12:27:25;6.18;;;3.80;;
8704;SDS011;4389;41.932;25.904;2023-05-27T12:29:53;32.58;;;5.35;;
8704;SDS011;4389;41.932;25.904;2023-05-27T12:32:20;4.30;;;3.90;;
8704;SDS011;4389;41.932;25.904;2023-05-27T12:34:46;6.85;;;3.47;;
8704;SDS011;4389;41.932;25.904;2023-05-27T12:37:13;7.75;;;3.58;;
8704;SDS011;4389;41.932;25.904;2023-05-27T12:39:40;4.47;;;3.60;;
8704;SDS011;4389;41.932;25.904;2023-05-27T12:42:07;3.80;;;3.45;;
8704;SDS011;4389;41.932;25.904;2023-05-27T12:44:34;12.18;;;3.88;;
8704;SDS011;4389;41.932;25.904;2023-05-27T12:47:02;6.63;;;3.10;;
8704;SDS011;4389;41.932;25.904;2023-05-27T12:49:29;5.20;;;3.78;;
8704;SDS011;4389;41.932;25.904;2023-05-27T12:51:55;5.97;;;3.83;;
8704;SDS011;4389;41.932;25.904;2023-05-27T12:54:22;17.90;;;4.25;;
8704;SDS011;4389;41.932;25.904;2023-05-27T12:56:49;5.97;;;3.42;;
8704;SDS011;4389;41.932;25.904;2023-05-27T12:59:17;4.60;;;3.53;;
8704;SDS011;4389;41.932;25.904;2023-05-27T13:01:44;7.53;;;3.78;;
8704;SDS011;4389;41.932;25.904;2023-05-27T13:04:12;4.30;;;3.47;;
8704;SDS011;4389;41.932;25.904;2023-05-27T13:06:38;6.70;;;3.60;;
8704;SDS011;4389;41.932;25.904;2023-05-27T13:09:06;8.05;;;3.50;;
8704;SDS011;4389;41.932;25.904;2023-05-27T13:11:33;4.75;;;3.80;;
8704;SDS011;4389;41.932;25.904;2023-05-27T13:14:00;6.93;;;3.40;;
8704;SDS011;4389;41.932;25.904;2023-05-27T13:16:27;5.45;;;3.33;;
8704;SDS011;4389;41.932;25.904;2023-05-27T13:18:55;3.90;;;3.50;;
8704;SDS011;4389;41.932;25.904;2023-05-27T13:21:23;3.63;;;3.33;;
8704;SDS011;4389;41.932;25.904;2023-05-27T13:23:51;4.78;;;3.90;;
8704;SDS011;4389;41.932;25.904;2023-05-27T13:26:20;6.05;;;3.58;;
8704;SDS011;4389;41.932;25.904;2023-05-27T13:28:47;12.70;;;3.90;;
8704;SDS011;4389;41.932;25.904;2023-05-27T13:31:14;5.53;;;3.50;;
8704;SDS011;4389;41.932;25.904;2023-05-27T13:33:41;4.72;;;3.13;;
8704;SDS011;4389;41.932;25.904;2023-05-27T13:36:08;4.53;;;3.67;;
8704;SDS011;4389;41.932;25.904;2023-05-27T13:38:37;4.70;;;3.30;;
8704;SDS011;4389;41.932;25.904;2023-05-27T13:41:03;5.32;;;3.63;;
8704;SDS011;4389;41.932;25.904;2023-05-27T13:43:30;4.18;;;3.45;;
8704;SDS011;4389;41.932;25.904;2023-05-27T13:45:57;5.50;;;3.55;;
8704;SDS011;4389;41.932;25.904;2023-05-27T13:48:24;4.00;;;3.50;;
8704;SDS011;4389;41.932;25.904;2023-05-27T13:50:51;4.32;;;3.25;;
8704;SDS011;4389;41.932;25.904;2023-05-27T13:53:17;6.07;;;3.33;;
8704;SDS011;4389;41.932;25.904;2023-05-27T13:55:46;5.10;;;3.30;;
8704;SDS011;4389;41.932;25.904;2023-05-27T13:58:12;4.55;;;3.92;;
8704;SDS011;4389;41.932;25.904;2023-05-27T14:00:39;4.78;;;3.70;;
8704;SDS011;4389;41.932;25.904;2023-05-27T14:03:06;3.75;;;3.33;;
8704;SDS011;4389;41.932;25.904;2023-05-27T14:05:33;8.32;;;3.40;;
8704;SDS011;4389;41.932;25.904;2023-05-27T14:08:01;7.40;;;3.63;;
8704;SDS011;4389;41.932;25.904;2023-05-27T14:10:28;8.95;;;3.88;;
8704;SDS011;4389;41.932;25.904;2023-05-27T14:12:57;5.05;;;3.35;;
8704;SDS011;4389;41.932;25.904;2023-05-27T14:15:24;4.50;;;3.40;;
8704;SDS011;4389;41.932;25.904;2023-05-27T14:17:53;8.68;;;3.45;;
8704;SDS011;4389;41.932;25.904;2023-05-27T14:20:19;4.35;;;3.20;;
8704;SDS011;4389;41.932;25.904;2023-05-27T14:22:46;5.65;;;3.20;;
8704;SDS011;4389;41.932;25.904;2023-05-27T14:25:13;3.97;;;3.20;;
8704;SDS011;4389;41.932;25.904;2023-05-27T14:27:41;3.78;;;3.35;;
8704;SDS011;4389;41.932;25.904;2023-05-27T14:30:09;4.05;;;3.65;;
8704;SDS011;4389;41.932;25.904;2023-05-27T14:32:36;5.80;;;3.50;;
8704;SDS011;4389;41.932;25.904;2023-05-27T14:35:03;5.82;;;3.40;;
8704;SDS011;4389;41.932;25.904;2023-05-27T14:37:31;7.35;;;3.75;;
8704;SDS011;4389;41.932;25.904;2023-05-27T14:39:57;15.38;;;4.18;;
8704;SDS011;4389;41.932;25.904;2023-05-27T14:42:24;5.07;;;3.80;;
8704;SDS011;4389;41.932;25.904;2023-05-27T14:44:51;5.90;;;3.60;;
8704;SDS011;4389;41.932;25.904;2023-05-27T14:47:19;10.00;;;3.95;;
8704;SDS011;4389;41.932;25.904;2023-05-27T14:49:47;9.45;;;3.58;;
8704;SDS011;4389;41.932;25.904;2023-05-27T14:52:13;8.60;;;3.83;;
8704;SDS011;4389;41.932;25.904;2023-05-27T14:54:40;5.68;;;3.50;;
8704;SDS011;4389;41.932;25.904;2023-05-27T14:57:07;12.18;;;3.45;;
8704;SDS011;4389;41.932;25.904;2023-05-27T14:59:34;4.95;;;3.85;;
8704;SDS011;4389;41.932;25.904;2023-05-27T15:02:01;5.18;;;3.70;;